createdAt,value
2022-09-14T00:00:17.321Z,70.6
2022-09-14T00:05:17.485Z,70.5
2022-09-14T00:10:17.272Z,70.6
2022-09-14T00:15:17.346Z,70.7
2022-09-14T00:20:17.406Z,70.7
2022-09-14T00:25:17.310Z,70.7
2022-09-14T00:30:17.633Z,70.7
2022-09-14T00:35:17.372Z,70.7
2022-09-14T00:40:17.383Z,70.7
2022-09-14T00:45:17.425Z,70.8
2022-09-14T00:50:15.389Z,70.7
2022-09-14T00:55:15.403Z,70.8
2022-09-14T01:00:15.389Z,70.8
2022-09-14T01:05:15.735Z,70.8
2022-09-14T01:10:15.455Z,70.8
2022-09-14T01:15:15.632Z,70.8
2022-09-14T01:20:15.457Z,70.7
2022-09-14T01:25:15.406Z,70.8
2022-09-14T01:30:15.454Z,70.7
2022-09-14T01:35:16.203Z,70.5
2022-09-14T01:40:16.059Z,70.4
2022-09-14T01:45:15.531Z,70.3
2022-09-14T01:50:15.569Z,70.3
2022-09-14T01:55:15.542Z,70.2
2022-09-14T02:00:15.632Z,70.2
2022-09-14T02:05:15.558Z,70.2
2022-09-14T02:10:15.641Z,70.2
2022-09-14T02:15:15.697Z,70.2
2022-09-14T02:20:15.731Z,70.3
2022-09-14T02:25:15.800Z,70.2
2022-09-14T02:30:15.649Z,70.2
2022-09-14T02:35:15.606Z,70.2
2022-09-14T02:40:15.618Z,70.4
2022-09-14T02:45:15.643Z,70.7
2022-09-14T02:50:15.653Z,71.0
2022-09-14T02:55:15.620Z,70.9
2022-09-14T03:00:15.621Z,71.0
2022-09-14T03:05:15.762Z,71.0
2022-09-14T03:10:15.795Z,70.9
2022-09-14T03:15:15.800Z,70.8
2022-09-14T03:20:15.757Z,70.7
2022-09-14T03:25:15.912Z,70.6
2022-09-14T03:30:15.840Z,70.5
2022-09-14T03:35:15.905Z,70.4
2022-09-14T03:40:20.784Z,70.2
2022-09-14T03:45:15.711Z,70.1
2022-09-14T03:50:15.834Z,69.9
2022-09-14T03:55:15.784Z,69.6
2022-09-14T04:00:17.119Z,69.5
2022-09-14T04:05:21.116Z,69.2
2022-09-14T04:10:16.828Z,69.1
2022-09-14T04:15:16.810Z,69.1
2022-09-14T04:20:16.870Z,69.0
2022-09-14T04:25:16.910Z,69.0
2022-09-14T04:30:16.957Z,68.9
2022-09-14T04:35:16.927Z,68.8
2022-09-14T04:40:17.011Z,68.8
2022-09-14T04:45:16.860Z,68.8
2022-09-14T04:50:16.972Z,68.6
2022-09-14T04:55:16.878Z,68.6
2022-09-14T05:00:16.898Z,68.6
2022-09-14T05:05:17.119Z,68.6
2022-09-14T05:10:16.992Z,68.6
2022-09-14T05:15:17.034Z,68.6
2022-09-14T05:20:17.097Z,68.5
2022-09-14T05:25:17.002Z,68.5
2022-09-14T05:30:16.980Z,68.4
2022-09-14T05:35:16.988Z,68.4
2022-09-14T05:40:17.054Z,68.3
2022-09-14T05:45:17.185Z,68.1
2022-09-14T05:50:16.949Z,68.1
2022-09-14T05:55:17.076Z,68.0
2022-09-14T06:00:17.030Z,67.9
2022-09-14T06:05:17.126Z,67.9
2022-09-14T06:10:17.218Z,67.8
2022-09-14T06:15:17.168Z,67.7
2022-09-14T06:20:17.231Z,67.6
2022-09-14T06:25:17.186Z,67.4
2022-09-14T06:30:17.131Z,67.3
2022-09-14T06:35:17.340Z,67.2
2022-09-14T06:40:17.335Z,67.1
2022-09-14T06:45:17.180Z,66.9
2022-09-14T06:50:17.193Z,66.7
2022-09-14T06:55:17.209Z,66.6
2022-09-14T07:00:17.225Z,66.5
2022-09-14T07:05:17.258Z,66.3
2022-09-14T07:10:17.314Z,66.2
2022-09-14T07:15:17.352Z,66.0
2022-09-14T07:20:17.335Z,65.8
2022-09-14T07:25:17.253Z,65.6
2022-09-14T07:30:17.233Z,65.5
2022-09-14T07:35:17.333Z,65.3
2022-09-14T07:40:17.301Z,65.1
2022-09-14T07:45:17.373Z,65.0
2022-09-14T07:50:17.411Z,64.8
2022-09-14T07:55:17.354Z,64.6
2022-09-14T08:00:17.438Z,64.5
2022-09-14T08:05:17.549Z,64.3
2022-09-14T08:10:17.384Z,64.1
2022-09-14T08:15:17.300Z,63.9
2022-09-14T08:20:17.460Z,63.7
2022-09-14T08:25:17.451Z,63.6
2022-09-14T08:30:15.448Z,63.4
2022-09-14T08:35:15.537Z,63.2
2022-09-14T08:40:15.552Z,63.1
2022-09-14T08:45:15.473Z,63.0
2022-09-14T08:50:15.424Z,62.8
2022-09-14T08:55:15.457Z,62.6
2022-09-14T09:00:15.709Z,62.5
2022-09-14T09:05:15.490Z,62.3
2022-09-14T09:10:15.519Z,62.2
2022-09-14T09:15:15.475Z,62.1
2022-09-14T09:20:15.511Z,62.0
2022-09-14T09:25:15.602Z,61.9
2022-09-14T09:30:15.695Z,61.8
2022-09-14T09:35:15.623Z,61.7
2022-09-14T09:40:15.715Z,61.6
2022-09-14T09:45:15.885Z,61.5
2022-09-14T09:50:15.545Z,61.4
2022-09-14T09:55:15.554Z,61.4
2022-09-14T10:00:15.659Z,61.3
2022-09-14T10:05:15.535Z,61.3
2022-09-14T10:10:15.565Z,61.2
2022-09-14T10:15:15.654Z,61.2
2022-09-14T10:20:15.661Z,61.1
2022-09-14T10:25:15.654Z,61.2
2022-09-14T10:30:15.641Z,61.1
2022-09-14T10:35:15.712Z,61.1
2022-09-14T10:40:15.849Z,61.1
2022-09-14T10:45:15.677Z,61.2
2022-09-14T10:50:15.686Z,61.4
2022-09-14T10:55:15.896Z,61.6
2022-09-14T11:00:15.765Z,61.7
2022-09-14T11:05:15.700Z,61.9
2022-09-14T11:10:15.778Z,62.1
2022-09-14T11:15:15.731Z,62.3
2022-09-14T11:20:15.789Z,62.5
2022-09-14T11:25:15.904Z,62.6
2022-09-14T11:30:15.776Z,62.9
2022-09-14T11:35:15.746Z,63.1
2022-09-14T11:40:15.862Z,63.3
2022-09-14T11:45:15.770Z,63.5
2022-09-14T11:50:15.931Z,63.8
2022-09-14T11:55:15.862Z,64.0
2022-09-14T12:00:15.977Z,64.3
2022-09-14T12:05:15.885Z,64.7
2022-09-14T12:10:15.852Z,65.1
2022-09-14T12:15:15.941Z,65.4
2022-09-14T12:20:20.210Z,65.8
2022-09-14T12:25:15.874Z,66.1
2022-09-14T12:30:15.960Z,66.4
2022-09-14T12:35:15.876Z,66.6
2022-09-14T12:40:15.993Z,67.0
2022-09-14T12:45:16.039Z,67.3
2022-09-14T12:50:15.967Z,67.6
2022-09-14T12:55:15.987Z,67.9
2022-09-14T13:00:16.094Z,68.0
2022-09-14T13:05:16.043Z,68.3
2022-09-14T13:10:15.946Z,68.5
2022-09-14T13:15:16.114Z,68.8
2022-09-14T13:20:16.063Z,69.0
2022-09-14T13:25:16.147Z,69.4
2022-09-14T13:30:16.226Z,69.5
2022-09-14T13:35:16.060Z,69.6
2022-09-14T13:40:16.086Z,69.7
2022-09-14T13:45:16.053Z,69.8
2022-09-14T13:50:16.154Z,69.9
2022-09-14T13:55:16.138Z,70.2
2022-09-14T14:00:16.202Z,70.4
2022-09-14T14:05:16.129Z,70.6
2022-09-14T14:10:19.991Z,70.9
2022-09-14T14:15:16.069Z,71.2
2022-09-14T14:20:16.109Z,71.5
2022-09-14T14:25:16.315Z,71.8
2022-09-14T14:30:16.147Z,72.0
2022-09-14T14:35:16.198Z,72.1
2022-09-14T14:40:16.325Z,72.3
2022-09-14T14:45:16.127Z,72.4
2022-09-14T14:50:16.317Z,72.8
2022-09-14T14:55:16.256Z,73.0
2022-09-14T15:00:16.274Z,73.3
2022-09-14T15:05:16.219Z,73.5
2022-09-14T15:10:16.447Z,73.7
2022-09-14T15:15:16.395Z,73.9
2022-09-14T15:20:16.412Z,74.1
2022-09-14T15:25:16.380Z,74.4
2022-09-14T15:30:16.286Z,74.4
2022-09-14T15:35:16.309Z,74.5
2022-09-14T15:40:16.323Z,74.5
2022-09-14T15:45:16.274Z,74.9
2022-09-14T15:50:16.301Z,75.2
2022-09-14T15:55:16.407Z,75.6
2022-09-14T16:00:16.338Z,75.8
2022-09-14T16:05:16.457Z,76.3
2022-09-14T16:10:16.345Z,76.6
2022-09-14T16:15:16.340Z,76.7
2022-09-14T16:20:16.488Z,76.3
2022-09-14T16:25:16.543Z,76.1
2022-09-14T16:30:16.423Z,76.5
2022-09-14T16:35:16.370Z,76.4
2022-09-14T16:40:16.493Z,76.4
2022-09-14T16:45:16.479Z,76.7
2022-09-14T16:50:16.513Z,76.8
2022-09-14T16:55:16.519Z,76.7
2022-09-14T17:00:16.645Z,77.0
2022-09-14T17:05:16.542Z,76.8
2022-09-14T17:10:16.471Z,76.6
2022-09-14T17:15:16.549Z,76.3
2022-09-14T17:20:16.501Z,76.5
2022-09-14T17:25:17.126Z,76.5
2022-09-14T17:30:16.719Z,76.4
2022-09-14T17:35:16.508Z,76.3
2022-09-14T17:40:16.721Z,76.5
2022-09-14T17:45:16.564Z,76.6
2022-09-14T17:50:16.816Z,76.5
2022-09-14T17:55:16.580Z,76.4
2022-09-14T18:00:16.610Z,76.2
2022-09-14T18:05:16.604Z,76.7
2022-09-14T18:10:16.646Z,77.3
2022-09-14T18:15:16.860Z,77.7
2022-09-14T18:20:16.620Z,77.9
2022-09-14T18:25:16.962Z,78.1
2022-09-14T18:30:16.636Z,78.3
2022-09-14T18:35:16.672Z,78.1
2022-09-14T18:40:20.120Z,77.8
2022-09-14T18:45:17.061Z,77.2
2022-09-14T18:50:16.681Z,76.7
2022-09-14T18:55:16.755Z,76.9
2022-09-14T19:00:18.627Z,77.2
2022-09-14T19:05:16.782Z,77.4
2022-09-14T19:10:16.701Z,77.2
2022-09-14T19:15:16.730Z,77.4
2022-09-14T19:20:16.761Z,77.8
2022-09-14T19:25:16.856Z,78.2
2022-09-14T19:30:16.772Z,78.2
2022-09-14T19:35:17.019Z,78.2
2022-09-14T19:40:16.951Z,77.7
2022-09-14T19:45:16.802Z,77.1
2022-09-14T19:50:16.873Z,76.7
2022-09-14T19:55:16.958Z,77.2
2022-09-14T20:00:18.251Z,77.8
2022-09-14T20:05:16.825Z,77.8
2022-09-14T20:10:16.963Z,77.7
2022-09-14T20:15:16.931Z,77.8
2022-09-14T20:20:16.897Z,77.9
2022-09-14T20:25:16.918Z,78.2
2022-09-14T20:30:16.927Z,78.5
2022-09-14T20:35:17.066Z,78.4
2022-09-14T20:40:17.017Z,77.8
2022-09-14T20:45:17.053Z,77.7
2022-09-14T20:50:16.957Z,77.7
2022-09-14T20:55:17.011Z,77.7
2022-09-14T21:00:17.085Z,77.6
2022-09-14T21:05:17.039Z,77.6
2022-09-14T21:10:17.160Z,77.6
2022-09-14T21:15:17.146Z,77.8
2022-09-14T21:20:17.005Z,77.9
2022-09-14T21:25:17.006Z,77.9
2022-09-14T21:30:17.122Z,77.5
2022-09-14T21:35:17.019Z,77.4
2022-09-14T21:40:17.240Z,77.3
2022-09-14T21:45:17.095Z,77.2
2022-09-14T21:50:17.115Z,77.3
2022-09-14T21:55:17.164Z,77.2
2022-09-14T22:00:17.232Z,77.0
2022-09-14T22:05:17.170Z,76.7
2022-09-14T22:10:17.169Z,76.5
2022-09-14T22:15:17.080Z,76.3
2022-09-14T22:20:17.125Z,76.1
2022-09-14T22:25:17.290Z,75.9
2022-09-14T22:30:17.197Z,75.8
2022-09-14T22:35:17.147Z,75.5
2022-09-14T22:40:17.414Z,75.1
2022-09-14T22:45:17.267Z,74.9
2022-09-14T22:50:17.234Z,74.6
2022-09-14T22:55:17.234Z,74.3
2022-09-14T23:00:17.342Z,74.0
2022-09-14T23:05:17.317Z,73.9
2022-09-14T23:10:17.234Z,73.8
2022-09-14T23:15:17.406Z,73.6
2022-09-14T23:20:17.261Z,73.5
2022-09-14T23:25:17.303Z,73.1
2022-09-14T23:30:17.320Z,73.0
2022-09-14T23:35:17.415Z,72.8
2022-09-14T23:40:17.683Z,72.4
2022-09-14T23:45:17.489Z,72.2
2022-09-14T23:50:17.467Z,71.8
2022-09-14T23:55:17.534Z,71.5
